sensor_id;sensor_type;location;lat;lon;timestamp;P1;durP1;ratioP1;P2;durP2;ratioP2
20597;SDS011;10457;48.770;11.446;2022-11-21T00:00:55;0.87;;;0.87;;
20597;SDS011;10457;48.770;11.446;2022-11-21T00:06:17;1.63;;;1.53;;
20597;SDS011;10457;48.770;11.446;2022-11-21T00:11:42;1.33;;;1.23;;
20597;SDS011;10457;48.770;11.446;2022-11-21T00:17:04;1.50;;;1.13;;
20597;SDS011;10457;48.770;11.446;2022-11-21T00:22:26;2.47;;;1.63;;
20597;SDS011;10457;48.770;11.446;2022-11-21T00:27:47;3.87;;;1.50;;
20597;SDS011;10457;48.770;11.446;2022-11-21T00:33:10;1.37;;;1.27;;
20597;SDS011;10457;48.770;11.446;2022-11-21T00:38:31;4.33;;;1.47;;
20597;SDS011;10457;48.770;11.446;2022-11-21T00:43:53;1.83;;;1.67;;
20597;SDS011;10457;48.770;11.446;2022-11-21T00:49:16;1.43;;;1.33;;
20597;SDS011;10457;48.770;11.446;2022-11-21T00:54:37;1.33;;;1.13;;
20597;SDS011;10457;48.770;11.446;2022-11-21T00:59:59;1.23;;;1.07;;
20597;SDS011;10457;48.770;11.446;2022-11-21T01:05:21;0.80;;;0.80;;
20597;SDS011;10457;48.770;11.446;2022-11-21T01:10:43;1.60;;;1.50;;
20597;SDS011;10457;48.770;11.446;2022-11-21T01:16:05;1.83;;;1.47;;
20597;SDS011;10457;48.770;11.446;2022-11-21T01:21:30;1.93;;;0.90;;
20597;SDS011;10457;48.770;11.446;2022-11-21T01:26:52;0.50;;;0.30;;
20597;SDS011;10457;48.770;11.446;2022-11-21T01:32:14;1.20;;;1.10;;
20597;SDS011;10457;48.770;11.446;2022-11-21T01:37:37;1.13;;;1.00;;
20597;SDS011;10457;48.770;11.446;2022-11-21T01:42:59;2.03;;;1.30;;
20597;SDS011;10457;48.770;11.446;2022-11-21T01:48:25;1.33;;;0.83;;
20597;SDS011;10457;48.770;11.446;2022-11-21T01:53:58;1.77;;;0.70;;
20597;SDS011;10457;48.770;11.446;2022-11-21T01:59:23;0.80;;;0.77;;
20597;SDS011;10457;48.770;11.446;2022-11-21T02:04:50;0.93;;;0.93;;
20597;SDS011;10457;48.770;11.446;2022-11-21T02:10:14;1.43;;;0.83;;
20597;SDS011;10457;48.770;11.446;2022-11-21T02:15:37;0.83;;;0.70;;
20597;SDS011;10457;48.770;11.446;2022-11-21T02:20:59;0.57;;;0.57;;
20597;SDS011;10457;48.770;11.446;2022-11-21T02:26:31;1.10;;;1.03;;
20597;SDS011;10457;48.770;11.446;2022-11-21T02:31:54;1.70;;;1.17;;
20597;SDS011;10457;48.770;11.446;2022-11-21T02:37:19;0.80;;;0.80;;
20597;SDS011;10457;48.770;11.446;2022-11-21T02:42:42;1.40;;;0.90;;
20597;SDS011;10457;48.770;11.446;2022-11-21T02:48:10;1.40;;;0.87;;
20597;SDS011;10457;48.770;11.446;2022-11-21T02:53:32;2.37;;;1.13;;
20597;SDS011;10457;48.770;11.446;2022-11-21T02:58:55;2.13;;;0.70;;
20597;SDS011;10457;48.770;11.446;2022-11-21T03:04:16;1.23;;;0.80;;
20597;SDS011;10457;48.770;11.446;2022-11-21T03:09:38;1.00;;;1.00;;
20597;SDS011;10457;48.770;11.446;2022-11-21T03:15:01;1.30;;;1.03;;
20597;SDS011;10457;48.770;11.446;2022-11-21T03:20:22;1.17;;;0.90;;
20597;SDS011;10457;48.770;11.446;2022-11-21T03:25:44;1.30;;;1.03;;
20597;SDS011;10457;48.770;11.446;2022-11-21T03:31:07;2.10;;;1.20;;
20597;SDS011;10457;48.770;11.446;2022-11-21T03:36:29;1.27;;;1.00;;
20597;SDS011;10457;48.770;11.446;2022-11-21T03:41:50;2.07;;;1.10;;
20597;SDS011;10457;48.770;11.446;2022-11-21T03:47:13;1.17;;;0.93;;
20597;SDS011;10457;48.770;11.446;2022-11-21T03:52:35;2.23;;;1.27;;
20597;SDS011;10457;48.770;11.446;2022-11-21T03:57:56;3.13;;;0.63;;
20597;SDS011;10457;48.770;11.446;2022-11-21T04:03:19;1.27;;;1.17;;
20597;SDS011;10457;48.770;11.446;2022-11-21T04:08:40;2.53;;;1.13;;
20597;SDS011;10457;48.770;11.446;2022-11-21T04:14:01;1.47;;;0.80;;
20597;SDS011;10457;48.770;11.446;2022-11-21T04:19:24;3.07;;;1.13;;
20597;SDS011;10457;48.770;11.446;2022-11-21T04:24:46;1.43;;;0.80;;
20597;SDS011;10457;48.770;11.446;2022-11-21T04:30:08;1.77;;;1.00;;
20597;SDS011;10457;48.770;11.446;2022-11-21T04:35:32;3.50;;;1.27;;
20597;SDS011;10457;48.770;11.446;2022-11-21T04:40:54;5.07;;;1.10;;
20597;SDS011;10457;48.770;11.446;2022-11-21T04:46:15;1.63;;;0.90;;
20597;SDS011;10457;48.770;11.446;2022-11-21T04:51:39;1.27;;;1.00;;
20597;SDS011;10457;48.770;11.446;2022-11-21T04:57:00;2.27;;;1.40;;
20597;SDS011;10457;48.770;11.446;2022-11-21T05:02:22;1.97;;;0.90;;
20597;SDS011;10457;48.770;11.446;2022-11-21T05:07:45;1.83;;;0.70;;
20597;SDS011;10457;48.770;11.446;2022-11-21T05:13:08;2.60;;;0.70;;
20597;SDS011;10457;48.770;11.446;2022-11-21T05:18:41;1.03;;;0.90;;
20597;SDS011;10457;48.770;11.446;2022-11-21T05:24:09;2.17;;;0.90;;
20597;SDS011;10457;48.770;11.446;2022-11-21T05:29:30;0.63;;;0.63;;
20597;SDS011;10457;48.770;11.446;2022-11-21T05:34:52;0.80;;;0.80;;
20597;SDS011;10457;48.770;11.446;2022-11-21T05:40:15;1.93;;;0.90;;
20597;SDS011;10457;48.770;11.446;2022-11-21T05:45:36;2.03;;;0.90;;
20597;SDS011;10457;48.770;11.446;2022-11-21T05:50:58;3.07;;;1.27;;
20597;SDS011;10457;48.770;11.446;2022-11-21T05:56:21;3.00;;;1.00;;
20597;SDS011;10457;48.770;11.446;2022-11-21T06:01:47;1.73;;;1.17;;
20597;SDS011;10457;48.770;11.446;2022-11-21T06:07:26;0.93;;;0.93;;
20597;SDS011;10457;48.770;11.446;2022-11-21T06:12:48;1.30;;;0.97;;
20597;SDS011;10457;48.770;11.446;2022-11-21T06:18:11;2.47;;;1.50;;
20597;SDS011;10457;48.770;11.446;2022-11-21T06:23:32;2.10;;;1.67;;
20597;SDS011;10457;48.770;11.446;2022-11-21T06:28:56;2.30;;;1.90;;
20597;SDS011;10457;48.770;11.446;2022-11-21T06:34:17;1.60;;;1.50;;
20597;SDS011;10457;48.770;11.446;2022-11-21T06:39:39;4.97;;;1.30;;
20597;SDS011;10457;48.770;11.446;2022-11-21T06:45:02;2.80;;;1.57;;
20597;SDS011;10457;48.770;11.446;2022-11-21T06:50:24;3.70;;;2.30;;
20597;SDS011;10457;48.770;11.446;2022-11-21T06:55:45;4.00;;;2.30;;
20597;SDS011;10457;48.770;11.446;2022-11-21T07:01:08;5.77;;;2.73;;
20597;SDS011;10457;48.770;11.446;2022-11-21T07:06:54;3.23;;;2.07;;
20597;SDS011;10457;48.770;11.446;2022-11-21T07:12:16;2.50;;;2.20;;
20597;SDS011;10457;48.770;11.446;2022-11-21T07:17:59;4.07;;;1.97;;
20597;SDS011;10457;48.770;11.446;2022-11-21T07:23:20;3.50;;;2.40;;
20597;SDS011;10457;48.770;11.446;2022-11-21T07:28:42;3.80;;;2.57;;
20597;SDS011;10457;48.770;11.446;2022-11-21T07:34:05;6.97;;;3.37;;
20597;SDS011;10457;48.770;11.446;2022-11-21T07:39:27;4.43;;;2.63;;
20597;SDS011;10457;48.770;11.446;2022-11-21T07:44:48;3.53;;;1.90;;
20597;SDS011;10457;48.770;11.446;2022-11-21T07:50:11;1.97;;;1.77;;
20597;SDS011;10457;48.770;11.446;2022-11-21T07:55:33;2.67;;;1.63;;
20597;SDS011;10457;48.770;11.446;2022-11-21T08:00:54;3.47;;;2.33;;
20597;SDS011;10457;48.770;11.446;2022-11-21T08:06:17;2.83;;;2.30;;
20597;SDS011;10457;48.770;11.446;2022-11-21T08:11:39;1.80;;;1.70;;
20597;SDS011;10457;48.770;11.446;2022-11-21T08:17:00;3.73;;;2.10;;
20597;SDS011;10457;48.770;11.446;2022-11-21T08:22:26;3.37;;;1.80;;
20597;SDS011;10457;48.770;11.446;2022-11-21T08:27:48;1.27;;;1.20;;
20597;SDS011;10457;48.770;11.446;2022-11-21T08:33:09;2.00;;;1.70;;
20597;SDS011;10457;48.770;11.446;2022-11-21T08:38:33;1.70;;;1.60;;
20597;SDS011;10457;48.770;11.446;2022-11-21T08:43:54;2.77;;;1.67;;
20597;SDS011;10457;48.770;11.446;2022-11-21T08:49:16;2.87;;;2.07;;
20597;SDS011;10457;48.770;11.446;2022-11-21T08:54:39;2.30;;;1.90;;
20597;SDS011;10457;48.770;11.446;2022-11-21T09:00:01;3.17;;;2.23;;
20597;SDS011;10457;48.770;11.446;2022-11-21T09:05:23;2.87;;;1.60;;
20597;SDS011;10457;48.770;11.446;2022-11-21T09:10:45;4.53;;;2.70;;
20597;SDS011;10457;48.770;11.446;2022-11-21T09:16:09;1.93;;;1.83;;
20597;SDS011;10457;48.770;11.446;2022-11-21T09:21:48;2.20;;;1.90;;
20597;SDS011;10457;48.770;11.446;2022-11-21T09:27:12;1.90;;;1.07;;
20597;SDS011;10457;48.770;11.446;2022-11-21T09:32:36;2.27;;;1.70;;
20597;SDS011;10457;48.770;11.446;2022-11-21T09:38:00;6.47;;;1.57;;
20597;SDS011;10457;48.770;11.446;2022-11-21T09:43:28;5.00;;;1.63;;
20597;SDS011;10457;48.770;11.446;2022-11-21T09:49:03;2.90;;;1.50;;
20597;SDS011;10457;48.770;11.446;2022-11-21T09:54:30;2.60;;;1.10;;
20597;SDS011;10457;48.770;11.446;2022-11-21T09:59:54;3.83;;;1.60;;
20597;SDS011;10457;48.770;11.446;2022-11-21T10:05:20;4.27;;;2.13;;
20597;SDS011;10457;48.770;11.446;2022-11-21T10:10:54;4.43;;;2.13;;
20597;SDS011;10457;48.770;11.446;2022-11-21T10:16:19;6.27;;;3.43;;
20597;SDS011;10457;48.770;11.446;2022-11-21T10:22:05;2.77;;;2.53;;
20597;SDS011;10457;48.770;11.446;2022-11-21T10:27:41;2.87;;;1.30;;
20597;SDS011;10457;48.770;11.446;2022-11-21T10:33:12;2.27;;;1.33;;
20597;SDS011;10457;48.770;11.446;2022-11-21T10:38:40;4.40;;;2.00;;
20597;SDS011;10457;48.770;11.446;2022-11-21T10:44:04;3.30;;;1.50;;
20597;SDS011;10457;48.770;11.446;2022-11-21T10:50:01;3.93;;;1.53;;
20597;SDS011;10457;48.770;11.446;2022-11-21T10:55:35;4.67;;;1.40;;
20597;SDS011;10457;48.770;11.446;2022-11-21T11:01:18;2.07;;;1.17;;
20597;SDS011;10457;48.770;11.446;2022-11-21T11:12:15;4.15;;;1.60;;
20597;SDS011;10457;48.770;11.446;2022-11-21T11:18:11;2.67;;;1.00;;
20597;SDS011;10457;48.770;11.446;2022-11-21T11:23:36;4.05;;;1.00;;
20597;SDS011;10457;48.770;11.446;2022-11-21T11:29:08;1.92;;;0.90;;
20597;SDS011;10457;48.770;11.446;2022-11-21T11:34:37;5.25;;;1.30;;
20597;SDS011;10457;48.770;11.446;2022-11-21T11:40:05;2.20;;;1.10;;
20597;SDS011;10457;48.770;11.446;2022-11-21T11:45:40;1.02;;;0.82;;
20597;SDS011;10457;48.770;11.446;2022-11-21T11:51:36;4.60;;;1.65;;
20597;SDS011;10457;48.770;11.446;2022-11-21T11:57:03;2.65;;;1.00;;
20597;SDS011;10457;48.770;11.446;2022-11-21T12:02:26;4.30;;;0.90;;
20597;SDS011;10457;48.770;11.446;2022-11-21T12:08:08;3.95;;;0.90;;
20597;SDS011;10457;48.770;11.446;2022-11-21T12:13:37;4.43;;;1.42;;
20597;SDS011;10457;48.770;11.446;2022-11-21T12:19:09;3.47;;;1.02;;
20597;SDS011;10457;48.770;11.446;2022-11-21T12:24:34;1.88;;;0.77;;
20597;SDS011;10457;48.770;11.446;2022-11-21T12:30:09;1.40;;;1.17;;
20597;SDS011;10457;48.770;11.446;2022-11-21T12:35:53;3.20;;;1.40;;
20597;SDS011;10457;48.770;11.446;2022-11-21T12:41:41;3.88;;;1.55;;
20597;SDS011;10457;48.770;11.446;2022-11-21T12:47:33;2.60;;;1.40;;
20597;SDS011;10457;48.770;11.446;2022-11-21T12:53:29;1.27;;;1.17;;
20597;SDS011;10457;48.770;11.446;2022-11-21T12:59:17;2.42;;;1.17;;
20597;SDS011;10457;48.770;11.446;2022-11-21T13:04:40;6.05;;;1.00;;
20597;SDS011;10457;48.770;11.446;2022-11-21T13:10:09;4.18;;;1.00;;
20597;SDS011;10457;48.770;11.446;2022-11-21T13:15:42;3.33;;;1.15;;
20597;SDS011;10457;48.770;11.446;2022-11-21T13:27:06;2.38;;;0.82;;
20597;SDS011;10457;48.770;11.446;2022-11-21T13:32:37;4.60;;;1.17;;
20597;SDS011;10457;48.770;11.446;2022-11-21T13:38:02;9.05;;;1.23;;
20597;SDS011;10457;48.770;11.446;2022-11-21T13:43:25;1.23;;;0.90;;
20597;SDS011;10457;48.770;11.446;2022-11-21T13:48:59;3.53;;;1.30;;
20597;SDS011;10457;48.770;11.446;2022-11-21T13:54:35;1.50;;;0.70;;
20597;SDS011;10457;48.770;11.446;2022-11-21T14:00:39;2.05;;;1.00;;
20597;SDS011;10457;48.770;11.446;2022-11-21T14:06:33;1.75;;;0.82;;
20597;SDS011;10457;48.770;11.446;2022-11-21T14:11:59;3.38;;;0.98;;
20597;SDS011;10457;48.770;11.446;2022-11-21T14:17:34;1.95;;;0.90;;
20597;SDS011;10457;48.770;11.446;2022-11-21T14:23:03;2.10;;;1.50;;
20597;SDS011;10457;48.770;11.446;2022-11-21T14:28:36;2.00;;;0.80;;
20597;SDS011;10457;48.770;11.446;2022-11-21T14:33:58;5.07;;;1.38;;
20597;SDS011;10457;48.770;11.446;2022-11-21T14:39:19;2.30;;;1.10;;
20597;SDS011;10457;48.770;11.446;2022-11-21T14:44:48;3.38;;;1.30;;
20597;SDS011;10457;48.770;11.446;2022-11-21T14:50:28;6.47;;;2.30;;
20597;SDS011;10457;48.770;11.446;2022-11-21T14:55:53;5.87;;;2.50;;
20597;SDS011;10457;48.770;11.446;2022-11-21T15:01:19;4.30;;;2.50;;
20597;SDS011;10457;48.770;11.446;2022-11-21T15:06:43;6.83;;;2.70;;
20597;SDS011;10457;48.770;11.446;2022-11-21T15:12:06;4.17;;;3.03;;
20597;SDS011;10457;48.770;11.446;2022-11-21T15:17:31;11.50;;;3.70;;
20597;SDS011;10457;48.770;11.446;2022-11-21T15:22:54;6.73;;;4.03;;
20597;SDS011;10457;48.770;11.446;2022-11-21T15:28:17;3.93;;;2.50;;
20597;SDS011;10457;48.770;11.446;2022-11-21T15:33:56;9.70;;;6.00;;
20597;SDS011;10457;48.770;11.446;2022-11-21T15:39:20;5.43;;;4.00;;
20597;SDS011;10457;48.770;11.446;2022-11-21T15:44:55;11.03;;;5.93;;
20597;SDS011;10457;48.770;11.446;2022-11-21T15:50:22;10.83;;;4.77;;
20597;SDS011;10457;48.770;11.446;2022-11-21T15:55:45;9.67;;;4.57;;
20597;SDS011;10457;48.770;11.446;2022-11-21T16:01:13;11.73;;;4.23;;
20597;SDS011;10457;48.770;11.446;2022-11-21T16:06:39;15.23;;;7.67;;
20597;SDS011;10457;48.770;11.446;2022-11-21T16:12:00;10.03;;;6.43;;
20597;SDS011;10457;48.770;11.446;2022-11-21T16:17:22;9.27;;;5.10;;
20597;SDS011;10457;48.770;11.446;2022-11-21T16:22:45;7.03;;;4.03;;
20597;SDS011;10457;48.770;11.446;2022-11-21T16:28:06;8.10;;;4.60;;
20597;SDS011;10457;48.770;11.446;2022-11-21T16:33:28;5.27;;;3.57;;
20597;SDS011;10457;48.770;11.446;2022-11-21T16:38:52;6.07;;;2.97;;
20597;SDS011;10457;48.770;11.446;2022-11-21T16:44:14;8.53;;;5.53;;
20597;SDS011;10457;48.770;11.446;2022-11-21T16:49:37;11.53;;;5.57;;
20597;SDS011;10457;48.770;11.446;2022-11-21T16:55:09;10.93;;;6.40;;
20597;SDS011;10457;48.770;11.446;2022-11-21T17:00:31;20.93;;;13.60;;
20597;SDS011;10457;48.770;11.446;2022-11-21T17:05:56;43.63;;;22.63;;
20597;SDS011;10457;48.770;11.446;2022-11-21T17:11:19;40.77;;;22.30;;
20597;SDS011;10457;48.770;11.446;2022-11-21T17:16:44;41.47;;;22.73;;
20597;SDS011;10457;48.770;11.446;2022-11-21T17:22:08;27.23;;;15.47;;
20597;SDS011;10457;48.770;11.446;2022-11-21T17:27:31;19.80;;;12.60;;
20597;SDS011;10457;48.770;11.446;2022-11-21T17:32:53;15.60;;;10.70;;
20597;SDS011;10457;48.770;11.446;2022-11-21T17:38:15;14.57;;;8.47;;
20597;SDS011;10457;48.770;11.446;2022-11-21T17:43:41;8.93;;;6.50;;
20597;SDS011;10457;48.770;11.446;2022-11-21T17:49:03;7.47;;;5.10;;
20597;SDS011;10457;48.770;11.446;2022-11-21T17:54:25;6.37;;;3.97;;
20597;SDS011;10457;48.770;11.446;2022-11-21T17:59:47;5.23;;;3.43;;
20597;SDS011;10457;48.770;11.446;2022-11-21T18:05:10;6.07;;;3.20;;
20597;SDS011;10457;48.770;11.446;2022-11-21T18:10:31;8.00;;;4.03;;
20597;SDS011;10457;48.770;11.446;2022-11-21T18:15:54;5.77;;;3.67;;
20597;SDS011;10457;48.770;11.446;2022-11-21T18:21:19;5.87;;;3.70;;
20597;SDS011;10457;48.770;11.446;2022-11-21T18:26:43;6.87;;;4.03;;
20597;SDS011;10457;48.770;11.446;2022-11-21T18:32:09;10.23;;;6.20;;
20597;SDS011;10457;48.770;11.446;2022-11-21T18:37:32;10.10;;;7.90;;
20597;SDS011;10457;48.770;11.446;2022-11-21T18:42:54;17.00;;;8.30;;
20597;SDS011;10457;48.770;11.446;2022-11-21T18:48:16;13.60;;;9.97;;
20597;SDS011;10457;48.770;11.446;2022-11-21T18:53:38;12.23;;;7.27;;
20597;SDS011;10457;48.770;11.446;2022-11-21T18:59:02;17.43;;;7.37;;
20597;SDS011;10457;48.770;11.446;2022-11-21T19:04:27;13.30;;;6.70;;
20597;SDS011;10457;48.770;11.446;2022-11-21T19:09:48;16.70;;;10.27;;
20597;SDS011;10457;48.770;11.446;2022-11-21T19:15:10;18.50;;;10.47;;
20597;SDS011;10457;48.770;11.446;2022-11-21T19:20:33;19.30;;;12.83;;
20597;SDS011;10457;48.770;11.446;2022-11-21T19:25:57;17.40;;;10.37;;
20597;SDS011;10457;48.770;11.446;2022-11-21T19:31:20;11.33;;;9.60;;
20597;SDS011;10457;48.770;11.446;2022-11-21T19:36:43;12.83;;;9.17;;
20597;SDS011;10457;48.770;11.446;2022-11-21T19:42:05;25.23;;;14.00;;
20597;SDS011;10457;48.770;11.446;2022-11-21T19:47:26;31.03;;;13.37;;
20597;SDS011;10457;48.770;11.446;2022-11-21T19:52:49;21.73;;;10.50;;
20597;SDS011;10457;48.770;11.446;2022-11-21T19:58:10;19.87;;;10.10;;
20597;SDS011;10457;48.770;11.446;2022-11-21T20:03:32;39.00;;;15.70;;
20597;SDS011;10457;48.770;11.446;2022-11-21T20:08:56;17.70;;;8.77;;
20597;SDS011;10457;48.770;11.446;2022-11-21T20:14:24;15.13;;;9.33;;
20597;SDS011;10457;48.770;11.446;2022-11-21T20:19:46;22.70;;;14.43;;
20597;SDS011;10457;48.770;11.446;2022-11-21T20:25:09;26.30;;;17.37;;
20597;SDS011;10457;48.770;11.446;2022-11-21T20:30:31;17.83;;;10.50;;
20597;SDS011;10457;48.770;11.446;2022-11-21T20:35:53;21.83;;;13.07;;
20597;SDS011;10457;48.770;11.446;2022-11-21T20:41:24;13.50;;;8.50;;
20597;SDS011;10457;48.770;11.446;2022-11-21T20:46:47;14.10;;;7.50;;
20597;SDS011;10457;48.770;11.446;2022-11-21T20:52:09;21.67;;;13.30;;
20597;SDS011;10457;48.770;11.446;2022-11-21T20:57:33;18.87;;;10.43;;
20597;SDS011;10457;48.770;11.446;2022-11-21T21:02:55;15.40;;;10.07;;
20597;SDS011;10457;48.770;11.446;2022-11-21T21:08:16;35.50;;;17.00;;
20597;SDS011;10457;48.770;11.446;2022-11-21T21:13:39;18.10;;;10.97;;
20597;SDS011;10457;48.770;11.446;2022-11-21T21:19:05;26.77;;;14.77;;
20597;SDS011;10457;48.770;11.446;2022-11-21T21:24:26;49.27;;;25.57;;
20597;SDS011;10457;48.770;11.446;2022-11-21T21:29:49;39.17;;;18.57;;
20597;SDS011;10457;48.770;11.446;2022-11-21T21:35:15;32.67;;;20.00;;
20597;SDS011;10457;48.770;11.446;2022-11-21T21:40:38;14.73;;;10.37;;
20597;SDS011;10457;48.770;11.446;2022-11-21T21:46:04;18.43;;;10.17;;
20597;SDS011;10457;48.770;11.446;2022-11-21T21:51:27;11.53;;;7.47;;
20597;SDS011;10457;48.770;11.446;2022-11-21T21:56:50;16.90;;;9.37;;
20597;SDS011;10457;48.770;11.446;2022-11-21T22:02:15;15.60;;;9.13;;
20597;SDS011;10457;48.770;11.446;2022-11-21T22:07:37;11.93;;;7.17;;
20597;SDS011;10457;48.770;11.446;2022-11-21T22:12:58;9.63;;;5.23;;
20597;SDS011;10457;48.770;11.446;2022-11-21T22:18:21;8.83;;;4.83;;
20597;SDS011;10457;48.770;11.446;2022-11-21T22:23:46;7.33;;;5.23;;
20597;SDS011;10457;48.770;11.446;2022-11-21T22:29:08;6.57;;;5.20;;
20597;SDS011;10457;48.770;11.446;2022-11-21T22:34:30;11.50;;;7.20;;
20597;SDS011;10457;48.770;11.446;2022-11-21T22:39:54;8.10;;;4.87;;
20597;SDS011;10457;48.770;11.446;2022-11-21T22:45:15;10.67;;;6.47;;
20597;SDS011;10457;48.770;11.446;2022-11-21T22:50:44;10.33;;;5.83;;
20597;SDS011;10457;48.770;11.446;2022-11-21T22:56:06;15.30;;;8.13;;
20597;SDS011;10457;48.770;11.446;2022-11-21T23:01:30;21.43;;;10.90;;
20597;SDS011;10457;48.770;11.446;2022-11-21T23:06:54;16.10;;;9.03;;
20597;SDS011;10457;48.770;11.446;2022-11-21T23:12:15;18.53;;;8.63;;
20597;SDS011;10457;48.770;11.446;2022-11-21T23:17:37;9.93;;;6.90;;
20597;SDS011;10457;48.770;11.446;2022-11-21T23:23:02;8.10;;;4.37;;
20597;SDS011;10457;48.770;11.446;2022-11-21T23:28:23;24.67;;;15.70;;
20597;SDS011;10457;48.770;11.446;2022-11-21T23:33:45;17.00;;;10.43;;
20597;SDS011;10457;48.770;11.446;2022-11-21T23:39:08;22.03;;;12.77;;
20597;SDS011;10457;48.770;11.446;2022-11-21T23:44:31;19.50;;;11.17;;
20597;SDS011;10457;48.770;11.446;2022-11-21T23:49:53;17.57;;;9.27;;
20597;SDS011;10457;48.770;11.446;2022-11-21T23:55:16;23.93;;;13.90;;
